Latest Weather Observations for McArthur River Mine

IDD60801

Issued at 2:35 am CST Thursday 18 September 2014 (issued every 30 minutes, with the page automatically refreshed every 10 minutes)

About weather observations | Map of weather stations | Latest weather observations for NT | Other Formats
Station Details ID: 014704 Name: MCARTHUR RIVER MINE AIRPORT Lat: -16.44 Lon: 136.08 Height: 40.0 m
Data from the previous 72 hours. | See also: Recent months at McArthur River Mine
Date/Time
CST
Temp
°C
App
Temp
°C
Dew
Point
Rel
Hum
%
Delta-T
°C
Wind Press
QNH
hPa
Press
MSL
hPa
Rain
since 9 am
mm
Dir
 
Spd
km/h
Gust
km/h
Spd
kts
Gust
kts
18/02:30am 19.6 22.4 17.9 90 1.0 S 0 0 0 0 1015.3 - 0.0
18/02:00am 19.8 21.3 17.6 87 1.3 SW 6 7 3 4 1015.3 - 0.0
18/01:30am 21.1 23.8 19.4 90 1.1 SSW 4 6 2 3 1015.6 - 0.0
18/01:11am 21.5 24.1 19.2 87 1.5 SW 4 7 2 4 1015.9 - 0.0
18/01:00am 21.3 24.5 18.9 86 1.5 WSW 0 6 0 3 1015.7 - 0.0
18/12:52am 21.5 23.3 18.3 82 2.0 SW 6 7 3 4 1016.0 - 0.0
18/12:30am 22.6 25.6 20.9 90 1.1 N 6 7 3 4 1015.9 - 0.0
18/12:00am 22.7 26.3 19.7 83 1.9 N 0 0 0 0 1016.0 1015.9 0.0
 
Date/Time
CST
Temp
°C
App
Temp
°C
Dew
Point
Rel
Hum
%
Delta-T
°C
Wind Press
QNH
hPa
Press
MSL
hPa
Rain
since 9 am
mm
Dir
 
Spd
km/h
Gust
km/h
Spd
kts
Gust
kts
17/11:30pm 23.7 26.3 20.4 82 2.1 NNE 7 11 4 6 1016.1 - 0.0
17/11:00pm 24.1 25.7 19.2 74 3.1 N 9 11 5 6 1016.2 - 0.0
17/10:30pm 24.5 26.2 18.4 69 3.9 N 7 11 4 6 1016.1 - 0.0
17/10:00pm 25.2 26.1 18.4 66 4.3 N 11 13 6 7 1015.9 - 0.0
17/09:30pm 25.7 26.6 16.5 56 5.7 NNE 7 11 4 6 1015.9 - 0.0
17/09:00pm 26.8 27.1 14.9 48 7.2 NNE 7 11 4 6 1015.6 1015.5 0.0
17/08:30pm 27.8 26.7 14.4 43 8.1 NNE 13 19 7 10 1015.0 - 0.0
17/08:00pm 28.5 26.7 13.2 39 9.1 NNE 15 20 8 11 1014.5 - 0.0
17/07:30pm 29.0 27.2 13.2 37 9.4 NNE 15 24 8 13 1014.0 - 0.0
17/07:00pm 29.9 27.1 9.9 29 11.3 NNE 15 20 8 11 1013.3 - 0.0
17/06:30pm 30.6 27.4 10.0 28 11.7 NNE 17 28 9 15 1012.7 - 0.0
17/06:00pm 31.5 28.0 10.2 27 12.2 NNE 19 33 10 18 1012.2 1012.0 0.0
17/05:30pm 33.0 28.3 9.1 23 13.5 NNE 24 33 13 18 1011.7 - 0.0
17/05:00pm 34.5 30.5 6.7 18 15.3 NNE 17 28 9 15 1011.2 - 0.0
17/04:30pm 36.4 31.2 -3.1 8 18.8 SE 15 24 8 13 1011.1 - 0.0
17/04:00pm 37.0 32.2 -2.7 8 19.1 E 13 20 7 11 1011.1 - 0.0
17/03:30pm 36.4 30.4 -3.1 8 18.8 SSE 19 24 10 13 1011.1 - 0.0
17/03:00pm 37.3 31.8 -2.4 8 19.2 E 17 28 9 15 1011.4 1011.2 0.0
17/02:30pm 36.9 30.9 -2.7 8 19.0 ESE 19 30 10 16 1011.9 - 0.0
17/02:00pm 37.0 31.3 -1.1 9 18.8 E 19 28 10 15 1012.4 - 0.0
17/01:30pm 37.1 32.1 -1.0 9 18.8 SE 15 26 8 14 1012.8 - 0.0
17/01:00pm 35.7 30.4 -0.6 10 17.9 SSE 17 35 9 19 1013.3 - 0.0
17/12:30pm 35.1 30.3 -2.5 9 17.9 SSE 13 22 7 12 1013.8 - 0.0
17/12:00pm 34.8 30.2 -1.3 10 17.4 SSE 13 24 7 13 1014.2 1014.0 0.0
17/11:30am 35.0 29.4 0.2 11 17.3 ENE 19 30 10 16 1014.8 - 0.0
17/11:00am 34.4 31.0 5.8 17 15.5 ESE 13 20 7 11 1015.4 - 0.0
17/10:30am 32.6 31.3 11.2 27 12.5 SE 9 13 5 7 1015.8 - 0.0
17/10:00am 30.9 30.8 13.2 34 10.6 S 6 11 3 6 1016.1 - 0.0
17/09:30am 29.1 29.1 14.1 40 9.0 SW 7 11 4 6 1016.4 - 0.0
17/09:00am 27.2 28.5 18.5 59 5.6 SSW 9 13 5 7 1016.5 1016.4 0.0
17/08:30am 25.2 27.7 20.2 74 3.3 S 7 11 4 6 1016.3 - 0.0
17/08:00am 22.9 26.5 22.1 95 0.5 WSW 6 7 3 4 1016.2 - 0.0
17/07:30am 20.5 23.3 20.5 100 0.0 WSW 6 7 3 4 1015.8 - 0.0
17/07:00am 18.7 - 18.9 - - W 6 7 3 4 1015.2 - 0.0
17/06:57am 18.5 - 18.7 - - W 6 7 3 4 1015.2 - 0.0
17/06:40am 18.2 - 18.4 - - W 6 7 3 4 1015.2 - 0.0
17/06:30am 18.2 - 18.4 - - WSW 7 9 4 5 1015.0 - 0.0
17/06:00am 18.3 19.9 18.3 100 0.0 WSW 7 9 4 5 1014.6 1014.4 0.0
17/05:30am 18.4 - 18.6 - - WSW 6 9 3 5 1014.2 - 0.0
17/05:00am 18.6 20.3 18.6 100 0.0 W 7 9 4 5 1013.7 - 0.0
17/04:30am 19.1 21.3 19.1 100 0.0 WSW 6 7 3 4 1013.5 - 0.0
17/04:00am 19.2 21.2 19.2 100 0.0 WSW 7 7 4 4 1013.3 - 0.0
17/03:45am 19.2 21.2 19.2 100 0.0 SW 7 9 4 5 1013.1 - 0.0
17/03:30am 19.2 21.5 18.5 96 0.4 SSW 4 7 2 4 1013.2 - 0.0
17/03:29am 19.2 21.7 19.0 99 0.1 SSW 4 6 2 3 1013.2 - 0.0
17/03:00am 19.8 23.1 19.1 96 0.4 CALM 0 0 0 0 1013.4 1013.2 0.0
17/02:30am 21.1 25.4 21.1 100 0.0 CALM 0 0 0 0 1013.7 - 0.0
17/02:00am 21.5 25.6 21.5 100 0.0 SSE 2 6 1 3 1014.0 - 0.0
17/01:30am 21.7 25.6 20.3 92 0.9 CALM 0 0 0 0 1013.9 - 0.0
17/01:00am 22.4 26.9 21.6 95 0.5 CALM 0 0 0 0 1014.1 - 0.0
17/12:30am 22.6 26.0 20.1 86 1.6 NNE 2 6 1 3 1014.5 - 0.0
17/12:00am 23.5 26.8 21.8 90 1.1 N 7 7 4 4 1014.5 1014.3 0.0
 
Date/Time
CST
Temp
°C
App
Temp
°C
Dew
Point
Rel
Hum
%
Delta-T
°C
Wind Press
QNH
hPa
Press
MSL
hPa
Rain
since 9 am
mm
Dir
 
Spd
km/h
Gust
km/h
Spd
kts
Gust
kts
16/11:30pm 24.0 27.3 21.5 86 1.7 NNE 6 7 3 4 1014.6 - 0.0
16/11:00pm 24.6 27.5 21.7 84 1.9 NNE 9 13 5 7 1014.5 - 0.0
16/10:48pm 24.6 27.4 20.9 80 2.4 NE 7 11 4 6 1014.6 - 0.0
16/10:30pm 24.9 27.1 20.4 76 2.9 NE 9 15 5 8 1014.5 - 0.0
16/10:29pm 25.0 27.2 20.5 76 2.9 NE 9 15 5 8 1014.5 - 0.0
16/10:00pm 25.1 27.1 19.9 73 3.4 NNE 9 13 5 7 1014.3 - 0.0
16/09:30pm 25.7 27.2 20.5 73 3.4 NNE 13 20 7 11 1014.2 - 0.0
16/09:00pm 25.9 27.9 20.7 73 3.4 N 11 19 6 10 1013.7 1013.5 0.0
16/08:30pm 26.9 27.5 18.7 60 5.3 NNE 13 20 7 11 1013.3 - 0.0
16/08:13pm 27.3 27.4 18.3 58 5.7 NNE 15 20 8 11 1013.1 - 0.0
16/08:00pm 27.5 27.3 17.7 55 6.2 NE 15 22 8 12 1012.9 - 0.0
16/07:54pm 27.7 27.7 17.2 52 6.6 NNE 13 24 7 13 1012.9 - 0.0
16/07:30pm 28.1 27.4 16.4 49 7.3 NNE 15 20 8 11 1012.5 - 0.0
16/07:00pm 28.7 27.8 16.9 48 7.4 NNE 17 30 9 16 1012.0 - 0.0
16/06:30pm 29.7 27.9 15.4 42 8.8 NNE 19 30 10 16 1011.6 - 0.0
16/06:00pm 30.7 28.0 13.0 33 10.5 NNE 19 28 10 15 1011.3 1011.1 0.0
16/05:30pm 31.6 28.9 12.9 32 11.2 NNE 19 32 10 17 1011.0 - 0.0
16/05:00pm 32.7 30.0 11.8 28 12.3 NE 17 26 9 14 1010.9 - 0.0
16/04:30pm 32.9 29.2 11.4 27 12.6 NE 22 39 12 21 1010.8 - 0.0
16/04:00pm 33.4 30.0 11.3 26 13.0 NNE 20 32 11 17 1010.7 - 0.0
16/03:30pm 34.5 30.5 9.0 21 14.5 NNE 20 35 11 19 1010.5 - 0.0
16/03:00pm 34.6 30.4 8.4 20 14.8 NE 20 30 11 16 1010.7 1010.5 0.0
16/02:00pm 35.2 31.2 4.7 15 16.3 NNE 15 24 8 13 1011.5 - 0.0
16/01:30pm 34.1 30.4 4.7 16 15.6 ENE 13 28 7 15 1011.9 - 0.0
16/01:00pm 34.9 31.9 6.2 17 15.7 SE 11 20 6 11 1012.3 - 0.0
16/12:30pm 34.4 30.0 6.7 18 15.2 ENE 19 28 10 15 1013.0 - 0.0
16/12:00pm 33.9 30.4 5.4 17 15.3 NNE 13 26 7 14 1013.5 1013.3 0.0
16/11:30am 33.4 30.9 8.1 21 14.1 ENE 11 20 6 11 1013.9 - 0.0
16/11:00am 32.9 29.8 9.0 23 13.5 NE 15 26 8 14 1014.1 - 0.0
16/10:30am 32.0 30.8 11.7 28 11.9 NE 9 19 5 10 1014.6 - 0.0
16/10:00am 29.8 30.1 15.9 43 8.6 SE 9 11 5 6 1015.0 - 0.0
16/09:30am 27.7 30.1 18.7 58 5.8 WSW 4 7 2 4 1015.1 - 0.0
16/09:00am 26.1 29.0 20.7 72 3.5 SW 6 11 3 6 1015.2 1015.0 0.0
16/08:30am 24.2 27.7 21.9 87 1.5 SW 6 9 3 5 1015.0 - 0.0
16/08:00am 22.8 26.2 21.6 93 0.8 W 6 9 3 5 1014.8 - 0.0
16/07:30am 20.8 24.3 19.5 92 0.8 CALM 0 0 0 0 1014.6 - 0.0
16/07:00am 18.8 21.2 18.0 95 0.5 WSW 2 6 1 3 1014.3 - 0.0
16/06:33am 18.2 20.8 17.6 96 0.4 CALM 0 0 0 0 1013.8 - 0.0
16/06:30am 18.2 20.8 17.6 96 0.4 CALM 0 0 0 0 1013.8 - 0.0
16/06:18am 18.3 21.0 17.7 96 0.4 CALM 0 0 0 0 1013.6 - 0.0
16/06:00am 18.2 20.5 17.6 96 0.4 WSW 2 6 1 3 1013.3 1013.1 0.0
16/05:52am 18.3 20.6 17.7 96 0.4 W 2 6 1 3 1013.2 - 0.0
16/05:42am 18.4 21.2 17.9 97 0.3 CALM 0 0 0 0 1013.2 - 0.0
16/05:30am 18.5 20.0 18.0 97 0.3 W 7 9 4 5 1013.1 - 0.0
16/05:15am 19.0 20.8 18.2 95 0.5 WSW 6 7 3 4 1013.1 - 0.0
16/05:00am 19.4 21.3 18.6 95 0.5 SSW 6 7 3 4 1013.0 - 0.0
16/04:30am 19.2 21.1 18.5 96 0.4 WNW 6 7 3 4 1012.8 - 0.0
16/04:00am 20.2 23.6 19.4 95 0.5 CALM 0 0 0 0 1012.7 - 0.0
16/03:55am 20.3 23.7 19.3 94 0.6 CALM 0 4 0 2 1012.6 - 0.0
16/03:39am 20.6 23.4 19.6 94 0.6 SSE 4 7 2 4 1012.6 - 0.0
16/03:30am 20.5 22.7 19.3 93 0.8 SE 6 7 3 4 1012.6 - 0.0
16/03:00am 20.5 24.2 20.0 97 0.3 CALM 0 0 0 0 1012.6 1012.4 0.0
16/02:30am 19.7 21.9 19.7 100 0.0 WSW 7 9 4 5 1012.6 - 0.0
16/02:00am 19.8 22.3 18.1 90 1.1 WNW 2 6 1 3 1012.8 - 0.0
16/01:30am 20.7 24.1 19.4 92 0.8 CALM 0 0 0 0 1013.0 - 0.0
16/01:00am 21.3 24.3 20.1 93 0.8 SE 4 6 2 3 1013.2 - 0.0
16/12:30am 22.1 25.0 20.7 92 0.9 SE 6 7 3 4 1013.4 - 0.0
16/12:29am 22.2 25.2 20.8 92 0.9 SE 6 7 3 4 1013.4 - 0.0
16/12:10am 22.3 25.5 20.6 90 1.1 E 4 7 2 4 1013.5 - 0.0
16/12:00am 22.3 25.3 20.0 87 1.5 ENE 4 7 2 4 1013.5 1013.3 0.0
 
Date/Time
CST
Temp
°C
App
Temp
°C
Dew
Point
Rel
Hum
%
Delta-T
°C
Wind Press
QNH
hPa
Press
MSL
hPa
Rain
since 9 am
mm
Dir
 
Spd
km/h
Gust
km/h
Spd
kts
Gust
kts
15/11:47pm 22.5 25.1 20.0 86 1.6 E 6 9 3 5 1013.4 - 0.0
15/11:36pm 22.6 25.4 19.6 83 1.9 NNE 4 7 2 4 1013.3 - 0.0
15/11:30pm 22.8 25.0 19.6 82 2.0 NNE 7 9 4 5 1013.4 - 0.0
15/11:00pm 23.4 25.7 19.5 79 2.5 N 6 9 3 5 1013.2 - 0.0
15/10:30pm 23.7 25.6 19.0 75 3.0 N 7 9 4 5 1013.3 - 0.0
15/10:00pm 24.4 26.0 18.3 69 3.9 N 7 11 4 6 1013.2 - 0.0
15/09:30pm 25.1 26.1 17.8 64 4.6 NNE 9 13 5 7 1013.2 - 0.0
15/09:00pm 25.8 25.9 16.4 56 5.8 NNE 11 19 6 10 1013.1 1012.9 0.0
15/08:30pm 26.5 25.5 14.6 48 7.1 NNE 13 22 7 12 1012.9 - 0.0
15/08:00pm 27.1 24.7 12.7 41 8.4 NNE 17 26 9 14 1012.7 - 0.0
15/07:30pm 27.8 25.4 12.6 39 8.9 NNE 17 26 9 14 1012.2 - 0.0
15/07:00pm 28.4 26.0 12.7 38 9.2 NNE 17 26 9 14 1011.7 - 0.0
15/06:30pm 29.5 27.1 11.5 33 10.4 NNE 15 22 8 12 1011.2 - 0.0
15/06:00pm 30.7 27.1 10.6 29 11.5 NNE 20 28 11 15 1010.8 1010.6 0.0
15/05:30pm 31.7 27.7 10.4 27 12.2 NE 22 35 12 19 1010.6 - 0.0
15/05:00pm 33.3 28.5 8.7 22 13.9 NNE 24 37 13 20 1010.2 - 0.0
15/04:30pm 35.4 32.2 2.8 13 16.9 ESE 9 19 5 10 1009.8 - 0.0
15/04:00pm 35.5 30.9 -0.8 10 17.8 SSE 13 20 7 11 1009.7 - 0.0
15/03:30pm 35.4 31.0 -2.3 9 18.0 E 11 17 6 9 1009.9 - 0.0
15/03:00pm 35.1 31.1 -2.5 9 17.9 E 9 15 5 8 1010.3 1010.1 0.0
15/02:30pm 35.7 30.2 -2.0 9 18.1 ESE 17 24 9 13 1010.7 - 0.0
15/02:00pm 35.4 30.5 -0.8 10 17.7 SSE 15 24 8 13 1011.1 - 0.0
15/01:30pm 35.2 31.4 -1.0 10 17.6 ESE 9 26 5 14 1011.6 - 0.0
15/01:00pm 34.7 30.2 -0.1 11 17.1 E 13 20 7 11 1012.1 - 0.0
15/12:30pm 34.6 31.1 1.1 12 16.8 NE 9 20 5 11 1012.7 - 0.0
15/12:00pm 33.2 29.6 3.1 15 15.5 SSE 11 17 6 9 1013.1 1012.9 0.0
15/11:30am 33.7 31.0 2.5 14 15.9 NE 6 13 3 7 1013.8 - 0.0
15/11:00am 32.3 29.7 3.3 16 14.9 SE 6 9 3 5 1014.2 - 0.0
15/10:30am 30.9 30.1 8.0 24 12.6 SSE 2 7 1 4 1014.7 - 0.0
15/10:00am 28.2 28.5 14.4 42 8.3 SSW 6 9 3 5 1015.0 - 0.0
15/09:30am 26.3 28.2 17.6 58 5.5 S 4 7 2 4 1015.1 - 0.0
15/09:00am 24.6 26.9 19.4 73 3.3 S 6 7 3 4 1015.1 1014.9 0.0
15/08:30am 23.1 25.5 20.1 83 1.9 S 7 11 4 6 1014.9 - 0.0
15/08:00am 20.9 23.3 20.1 95 0.5 SW 7 9 4 5 1014.7 - 0.0
15/07:30am 18.7 20.4 18.4 98 0.2 WSW 7 9 4 5 1014.4 - 0.0
15/07:00am 16.6 17.6 16.3 98 0.2 SW 6 7 3 4 1014.2 - 0.0
15/06:30am 16.1 18.0 15.8 98 0.2 CALM 0 2 0 1 1014.0 - 0.0
15/06:00am 16.5 17.9 16.5 100 0.0 W 4 6 2 3 1013.8 1013.6 0.0
15/05:30am 16.4 16.9 14.9 91 0.9 W 6 7 3 4 1013.5 - 0.0
15/05:00am 17.2 18.5 16.1 93 0.7 NNW 4 7 2 4 1013.3 - 0.0
15/04:30am 17.6 19.0 15.4 87 1.3 WNW 2 7 1 4 1013.2 - 0.0
15/04:00am 18.5 19.3 15.9 85 1.5 SW 6 7 3 4 1013.2 - 0.0
15/03:30am 19.4 20.3 16.2 82 1.9 SW 6 9 3 5 1013.1 - 0.0
15/03:00am 19.7 20.8 16.7 83 1.8 SW 6 7 3 4 1013.1 1012.9 0.0

Other Formats:

Comma delimited format used in spreadsheet applications
http://www.bom.gov.au/fwo/IDD60801/IDD60801.94239.axf

JavaScript Object Notation format (JSON) in row-major order
http://www.bom.gov.au/fwo/IDD60801/IDD60801.94239.json